createdAt,value
2023-04-18T00:00:38.161Z,10.00
2023-04-18T00:03:05.153Z,9.90
2023-04-18T00:05:32.246Z,9.90
2023-04-18T00:07:59.153Z,10.10
2023-04-18T00:10:26.008Z,10.00
2023-04-18T00:12:52.843Z,9.90
2023-04-18T00:15:19.691Z,9.90
2023-04-18T00:17:48.340Z,10.00
2023-04-18T00:20:15.255Z,9.90
2023-04-18T00:22:46.522Z,9.90
2023-04-18T00:25:13.909Z,10.10
2023-04-18T00:27:41.621Z,9.80
2023-04-18T00:30:10.090Z,10.30
2023-04-18T00:32:38.491Z,9.70
2023-04-18T00:35:06.187Z,9.80
2023-04-18T00:37:33.042Z,9.70
2023-04-18T00:39:59.902Z,10.10
2023-04-18T00:42:28.892Z,9.80
2023-04-18T00:44:56.023Z,11.30
2023-04-18T00:47:22.978Z,10.00
2023-04-18T00:49:50.080Z,9.80
2023-04-18T00:52:18.500Z,9.70
2023-04-18T00:54:46.436Z,9.80
2023-04-18T00:57:13.897Z,10.20
2023-04-18T00:59:41.367Z,9.80
2023-04-18T01:02:08.321Z,10.10
2023-04-18T01:04:35.498Z,9.80
2023-04-18T01:07:03.353Z,10.20
2023-04-18T01:09:30.675Z,10.20
2023-04-18T01:11:57.617Z,9.80
2023-04-18T01:14:24.534Z,9.80
2023-04-18T01:16:51.363Z,9.90
2023-04-18T01:19:19.245Z,9.80
2023-04-18T01:21:46.234Z,9.80
2023-04-18T01:24:17.793Z,10.10
2023-04-18T01:26:47.508Z,9.80
2023-04-18T01:29:14.469Z,10.20
2023-04-18T01:31:41.801Z,9.80
2023-04-18T01:34:08.971Z,9.80
2023-04-18T01:36:37.769Z,9.80
2023-04-18T01:39:04.980Z,9.80
2023-04-18T01:41:32.834Z,9.80
2023-04-18T01:44:00.161Z,10.40
2023-04-18T01:46:27.864Z,9.80
2023-04-18T01:48:55.490Z,9.80
2023-04-18T01:51:22.682Z,9.80
2023-04-18T01:53:49.986Z,9.70
2023-04-18T01:56:16.861Z,9.80
2023-04-18T01:58:43.790Z,10.30
2023-04-18T02:01:12.479Z,9.80
2023-04-18T02:03:39.986Z,9.70
2023-04-18T02:06:07.526Z,9.70
2023-04-18T02:08:35.982Z,9.70
2023-04-18T02:11:05.506Z,9.70
2023-04-18T02:13:32.858Z,9.70
2023-04-18T02:15:59.848Z,9.70
2023-04-18T02:18:27.196Z,9.70
2023-04-18T02:20:54.220Z,9.80
2023-04-18T02:23:22.471Z,10.00
2023-04-18T02:25:49.455Z,9.70
2023-04-18T02:28:17.766Z,10.00
2023-04-18T02:30:44.767Z,9.70
2023-04-18T02:33:11.887Z,9.70
2023-04-18T02:35:38.963Z,9.70
2023-04-18T02:38:05.864Z,10.10
2023-04-18T02:40:32.740Z,9.70
2023-04-18T02:42:59.796Z,10.40
2023-04-18T02:45:26.797Z,10.10
2023-04-18T02:47:56.838Z,9.70
2023-04-18T02:50:25.233Z,10.50
2023-04-18T02:52:54.183Z,9.70
2023-04-18T02:55:24.565Z,9.80
2023-04-18T02:57:53.468Z,9.70
2023-04-18T03:00:40.439Z,9.70
2023-04-18T03:03:19.264Z,10.50
2023-04-18T03:06:12.552Z,9.90
2023-04-18T03:08:42.249Z,9.70
2023-04-18T03:11:09.265Z,10.30
2023-04-18T03:13:37.032Z,9.70
2023-04-18T03:16:05.274Z,9.70
2023-04-18T03:18:33.228Z,9.70
2023-04-18T03:21:00.770Z,10.20
2023-04-18T03:23:29.445Z,9.80
2023-04-18T03:25:56.670Z,9.70
2023-04-18T03:28:23.994Z,10.10
2023-04-18T03:30:51.000Z,9.70
2023-04-18T03:33:18.194Z,9.70
2023-04-18T03:35:47.453Z,9.90
2023-04-18T03:38:23.731Z,9.70
2023-04-18T03:40:50.946Z,9.70
2023-04-18T03:43:24.792Z,9.70
2023-04-18T03:45:52.440Z,9.70
2023-04-18T03:48:19.998Z,10.40
2023-04-18T03:50:47.688Z,9.60
2023-04-18T03:53:15.601Z,9.50
2023-04-18T03:55:43.547Z,9.60
2023-04-18T03:58:13.401Z,10.60
2023-04-18T04:00:41.147Z,10.20
2023-04-18T04:03:10.761Z,9.60
2023-04-18T04:05:37.866Z,9.60
2023-04-18T04:08:05.070Z,9.60
2023-04-18T04:10:34.065Z,9.60
2023-04-18T04:13:01.206Z,9.60
2023-04-18T04:15:29.990Z,11.50
2023-04-18T04:18:41.790Z,10.20
2023-04-18T04:21:54.915Z,11.00
2023-04-18T04:24:45.430Z,11.60
2023-04-18T04:34:49.478Z,10.40
2023-04-18T04:37:19.747Z,9.70
2023-04-18T04:40:00.980Z,9.60
2023-04-18T04:42:41.423Z,9.60
2023-04-18T04:45:15.229Z,9.60
2023-04-18T04:47:42.124Z,9.60
2023-04-18T04:50:14.629Z,9.60
2023-04-18T04:52:42.396Z,9.60
2023-04-18T04:55:09.697Z,9.90
2023-04-18T04:57:37.332Z,9.60
2023-04-18T05:00:20.752Z,9.60
2023-04-18T05:02:49.209Z,9.60
2023-04-18T05:05:16.303Z,9.90
2023-04-18T05:07:43.128Z,9.60
2023-04-18T05:10:10.469Z,9.60
2023-04-18T05:12:37.339Z,9.60
2023-04-18T05:15:04.628Z,9.60
2023-04-18T05:17:31.508Z,9.60
2023-04-18T05:19:58.340Z,10.10
2023-04-18T05:22:25.239Z,11.00
2023-04-18T05:24:52.058Z,9.60
2023-04-18T05:27:19.013Z,9.80
2023-04-18T05:29:47.594Z,10.20
2023-04-18T05:32:14.713Z,9.70
2023-04-18T05:34:42.308Z,9.70
2023-04-18T05:37:09.236Z,9.70
2023-04-18T05:39:36.234Z,9.70
2023-04-18T05:42:03.404Z,9.80
2023-04-18T05:44:30.624Z,9.70
2023-04-18T05:46:57.603Z,10.70
2023-04-18T05:49:24.492Z,10.00
2023-04-18T05:51:52.843Z,10.30
2023-04-18T05:54:21.506Z,9.80
2023-04-18T05:56:48.391Z,10.30
2023-04-18T05:59:15.381Z,9.80
2023-04-18T06:01:42.902Z,9.80
2023-04-18T06:04:09.828Z,10.00
2023-04-18T06:06:36.791Z,9.80
2023-04-18T06:09:03.806Z,9.80
2023-04-18T06:11:33.533Z,10.20
2023-04-18T06:14:00.401Z,10.10
2023-04-18T06:16:27.705Z,9.80
2023-04-18T06:18:55.184Z,10.00
2023-04-18T06:21:22.149Z,9.90
2023-04-18T06:23:49.042Z,10.20
2023-04-18T06:26:16.317Z,10.30
2023-04-18T06:28:43.178Z,10.10
2023-04-18T06:31:10.659Z,10.10
2023-04-18T06:33:37.856Z,9.90
2023-04-18T06:36:08.938Z,10.20
2023-04-18T06:38:35.933Z,9.90
2023-04-18T06:41:02.825Z,9.90
2023-04-18T06:43:29.685Z,10.00
2023-04-18T06:45:56.941Z,9.90
2023-04-18T06:48:23.883Z,10.40
2023-04-18T06:50:50.853Z,10.00
2023-04-18T06:53:17.919Z,10.00
2023-04-18T06:55:44.843Z,10.20
2023-04-18T06:58:13.716Z,11.20
2023-04-18T07:00:40.727Z,10.00
2023-04-18T07:03:11.361Z,10.00
2023-04-18T07:05:39.013Z,11.60
2023-04-18T07:08:06.128Z,10.00
2023-04-18T07:10:33.055Z,10.00
2023-04-18T07:12:59.981Z,10.10
2023-04-18T07:15:26.837Z,10.00
2023-04-18T07:17:53.814Z,10.10
2023-04-18T07:20:20.788Z,10.10
2023-04-18T07:22:48.182Z,10.10
2023-04-18T07:25:15.084Z,10.10
2023-04-18T07:27:42.002Z,10.10
2023-04-18T07:30:09.444Z,10.20
2023-04-18T07:32:36.351Z,10.10
2023-04-18T07:35:04.154Z,10.10
2023-04-18T07:37:31.536Z,10.10
2023-04-18T07:39:58.831Z,11.10
2023-04-18T07:42:25.687Z,10.40
2023-04-18T07:44:58.284Z,10.20
2023-04-18T07:47:28.909Z,11.00
2023-04-18T07:49:57.432Z,10.80
2023-04-18T07:52:24.428Z,10.60
2023-04-18T07:54:51.333Z,10.40
2023-04-18T07:57:18.190Z,11.50
2023-04-18T07:59:45.045Z,10.40
2023-04-18T08:02:12.135Z,11.90
2023-04-18T08:04:39.191Z,11.20
2023-04-18T08:07:06.272Z,11.20
2023-04-18T08:09:34.279Z,10.40
2023-04-18T08:12:01.216Z,11.00
2023-04-18T08:14:28.126Z,10.70
2023-04-18T08:16:55.065Z,10.40
2023-04-18T08:19:21.976Z,10.40
2023-04-18T08:21:51.653Z,10.40
2023-04-18T08:24:18.532Z,10.70
2023-04-18T08:26:45.621Z,10.60
2023-04-18T08:29:12.993Z,10.60
2023-04-18T08:31:40.450Z,10.60
2023-04-18T08:34:07.350Z,10.70
2023-04-18T08:36:35.558Z,10.60
2023-04-18T08:39:02.395Z,10.70
2023-04-18T08:41:34.131Z,10.70
2023-04-18T08:44:01.125Z,10.90
2023-04-18T08:46:30.049Z,10.80
2023-04-18T08:48:59.606Z,10.80
2023-04-18T08:51:30.573Z,10.80
2023-04-18T08:54:02.733Z,10.90
2023-04-18T08:56:29.716Z,10.90
2023-04-18T08:59:00.102Z,11.00
2023-04-18T09:01:49.678Z,11.00
2023-04-18T09:04:44.929Z,11.00
2023-04-18T09:07:14.333Z,11.00
2023-04-18T09:09:41.912Z,11.00
2023-04-18T09:12:10.141Z,11.00
2023-04-18T09:14:37.590Z,11.00
2023-04-18T09:17:05.516Z,11.70
2023-04-18T09:19:33.922Z,11.10
2023-04-18T09:22:04.476Z,11.90
2023-04-18T09:24:32.102Z,11.30
2023-04-18T09:26:59.882Z,11.30
2023-04-18T09:29:46.200Z,11.40
2023-04-18T09:32:25.019Z,11.30
2023-04-18T09:34:54.476Z,11.30
2023-04-18T09:37:21.949Z,11.30
2023-04-18T09:39:50.676Z,11.20
2023-04-18T09:42:18.258Z,11.30
2023-04-18T09:45:06.189Z,11.30
2023-04-18T09:47:37.782Z,11.30
2023-04-18T09:50:06.615Z,11.40
2023-04-18T09:52:41.494Z,11.40
2023-04-18T09:55:11.071Z,11.40
2023-04-18T09:57:42.048Z,11.40
2023-04-18T10:00:24.180Z,11.90
2023-04-18T10:02:58.839Z,11.40
2023-04-18T10:05:31.249Z,11.40
2023-04-18T10:07:58.461Z,11.60
2023-04-18T10:10:25.733Z,11.30
2023-04-18T10:12:57.846Z,11.40
2023-04-18T10:15:27.271Z,11.40
2023-04-18T10:20:31.836Z,11.40
2023-04-18T10:22:59.854Z,11.50
2023-04-18T10:25:38.964Z,11.50
2023-04-18T10:28:09.854Z,11.60
2023-04-18T10:30:42.214Z,11.60
2023-04-18T10:33:33.592Z,11.60
2023-04-18T10:36:09.952Z,11.60
2023-04-18T10:38:47.271Z,11.70
2023-04-18T10:41:30.001Z,11.70
2023-04-18T10:44:11.435Z,11.80
2023-04-18T10:46:40.595Z,11.80
2023-04-18T10:49:16.531Z,11.90
2023-04-18T10:51:45.330Z,11.90
2023-04-18T10:54:51.831Z,12.00
2023-04-18T10:57:18.721Z,12.00
2023-04-18T10:59:50.296Z,12.10
2023-04-18T11:02:29.556Z,12.10
2023-04-18T11:05:01.778Z,12.10
2023-04-18T11:07:46.298Z,12.10
2023-04-18T11:10:16.017Z,12.10
2023-04-18T11:12:42.882Z,12.20
2023-04-18T11:15:17.374Z,12.20
2023-04-18T11:17:44.707Z,12.20
2023-04-18T11:20:15.290Z,12.20
2023-04-18T11:22:57.100Z,12.20
2023-04-18T11:25:27.246Z,12.20
2023-04-18T11:27:57.029Z,11.80
2023-04-18T11:30:23.939Z,12.30
2023-04-18T11:32:51.802Z,12.20
2023-04-18T11:35:19.753Z,12.20
2023-04-18T11:37:46.698Z,12.40
2023-04-18T11:40:14.414Z,12.40
2023-04-18T11:42:41.957Z,12.40
2023-04-18T11:45:13.116Z,12.50
2023-04-18T11:47:44.696Z,12.40
2023-04-18T11:50:13.551Z,12.40
2023-04-18T11:52:42.515Z,12.50
2023-04-18T11:55:17.877Z,12.50
2023-04-18T11:57:58.597Z,12.50
2023-04-18T12:00:37.469Z,12.50
2023-04-18T12:03:18.893Z,12.50
2023-04-18T12:05:46.215Z,12.60
2023-04-18T12:08:19.380Z,12.60
2023-04-18T12:10:50.950Z,12.60
2023-04-18T12:13:18.838Z,12.60
2023-04-18T12:15:47.013Z,12.60
2023-04-18T12:18:16.908Z,12.60
2023-04-18T12:20:51.609Z,12.60
2023-04-18T12:23:40.497Z,12.60
2023-04-18T12:26:12.236Z,12.60
2023-04-18T12:28:39.239Z,12.60
2023-04-18T12:31:07.453Z,12.50
2023-04-18T12:33:36.713Z,12.50
2023-04-18T12:36:05.483Z,12.50
2023-04-18T12:38:32.497Z,12.60
2023-04-18T12:40:59.416Z,12.80
2023-04-18T12:45:54.081Z,12.50
2023-04-18T12:48:21.148Z,12.50
2023-04-18T12:50:48.114Z,12.50
2023-04-18T12:53:14.987Z,12.50
2023-04-18T12:55:41.835Z,12.60
2023-04-18T12:58:08.683Z,12.60
2023-04-18T13:00:35.762Z,12.50
2023-04-18T13:03:03.054Z,13.30
2023-04-18T13:05:33.647Z,12.50
2023-04-18T13:10:31.717Z,12.50
2023-04-18T13:12:58.637Z,12.60
2023-04-18T13:15:27.381Z,12.60
2023-04-18T13:17:56.679Z,12.60
2023-04-18T13:20:23.732Z,12.60
2023-04-18T13:22:50.650Z,12.60
2023-04-18T13:25:17.467Z,13.60
2023-04-18T13:27:45.911Z,12.60
2023-04-18T13:30:13.172Z,12.60
2023-04-18T13:32:42.172Z,12.60
2023-04-18T13:35:11.242Z,12.60
2023-04-18T13:37:38.734Z,12.60
2023-04-18T13:40:07.037Z,12.60
2023-04-18T13:42:34.353Z,12.50
2023-04-18T13:45:01.200Z,12.50
2023-04-18T13:47:29.948Z,12.70
2023-04-18T13:49:57.856Z,12.60
2023-04-18T13:52:25.704Z,12.60
2023-04-18T13:54:52.873Z,12.70
2023-04-18T13:57:19.927Z,12.60
2023-04-18T13:59:46.927Z,12.60
2023-04-18T14:02:14.286Z,12.60
2023-04-18T14:04:41.532Z,12.50
2023-04-18T14:07:09.230Z,12.50
2023-04-18T14:09:36.187Z,12.50
2023-04-18T14:12:03.201Z,12.50
2023-04-18T14:14:30.395Z,12.50
2023-04-18T14:16:57.337Z,12.50
2023-04-18T14:19:24.388Z,12.50
2023-04-18T14:21:51.441Z,12.50
2023-04-18T14:24:18.446Z,12.50
2023-04-18T14:26:45.367Z,12.40
2023-04-18T14:29:12.586Z,12.40
2023-04-18T14:31:39.755Z,12.50
2023-04-18T14:34:08.382Z,12.40
2023-04-18T14:36:35.938Z,12.50
2023-04-18T14:39:03.543Z,12.50
2023-04-18T14:41:30.520Z,12.50
2023-04-18T14:43:57.381Z,12.50
2023-04-18T14:46:24.353Z,12.50
2023-04-18T14:48:51.201Z,12.50
2023-04-18T14:51:18.143Z,12.40
2023-04-18T14:53:45.593Z,12.50
2023-04-18T14:56:12.612Z,12.50
2023-04-18T14:58:39.531Z,12.50
2023-04-18T15:01:06.467Z,12.50
2023-04-18T15:03:34.028Z,13.20
2023-04-18T15:06:01.078Z,12.50
2023-04-18T15:08:28.158Z,12.50
2023-04-18T15:10:55.048Z,12.60
2023-04-18T15:13:21.939Z,12.60
2023-04-18T15:15:56.453Z,12.60
2023-04-18T15:18:23.491Z,12.80
2023-04-18T15:20:51.180Z,12.60
2023-04-18T15:23:18.137Z,12.60
2023-04-18T15:25:45.716Z,12.60
2023-04-18T15:28:17.071Z,12.60
2023-04-18T15:30:43.945Z,12.70
2023-04-18T15:33:11.845Z,12.70
2023-04-18T15:35:38.708Z,12.70
2023-04-18T15:38:06.776Z,12.70
2023-04-18T15:40:33.747Z,12.70
2023-04-18T15:43:00.768Z,12.70
2023-04-18T15:45:27.836Z,12.70
2023-04-18T15:47:55.976Z,12.60
2023-04-18T15:50:26.282Z,12.60
2023-04-18T15:52:53.235Z,12.60
2023-04-18T15:55:20.062Z,12.60
2023-04-18T15:57:47.080Z,12.60
2023-04-18T16:00:17.878Z,12.60
2023-04-18T16:02:46.003Z,12.60
2023-04-18T16:05:13.758Z,13.60
2023-04-18T16:07:42.600Z,12.60
2023-04-18T16:10:11.122Z,12.60
2023-04-18T16:12:39.248Z,12.50
2023-04-18T16:15:08.601Z,12.60
2023-04-18T16:17:36.549Z,12.60
2023-04-18T16:20:03.883Z,12.60
2023-04-18T16:22:30.866Z,12.50
2023-04-18T16:24:57.734Z,12.50
2023-04-18T16:27:24.791Z,12.50
2023-04-18T16:29:53.791Z,12.50
2023-04-18T16:32:20.948Z,12.50
2023-04-18T16:34:48.534Z,12.50
2023-04-18T16:37:15.772Z,12.50
2023-04-18T16:39:42.737Z,12.50
2023-04-18T16:42:09.700Z,12.50
2023-04-18T16:44:36.513Z,12.40
2023-04-18T16:47:05.084Z,12.40
2023-04-18T16:49:32.066Z,12.40
2023-04-18T16:51:58.971Z,12.40
2023-04-18T16:54:25.908Z,12.30
2023-04-18T16:56:52.891Z,12.30
2023-04-18T16:59:19.770Z,12.30
2023-04-18T17:01:49.023Z,12.30
2023-04-18T17:04:16.489Z,12.30
2023-04-18T17:06:43.906Z,12.30
2023-04-18T17:09:13.594Z,12.20
2023-04-18T17:11:41.334Z,12.20
2023-04-18T17:14:08.920Z,12.20
2023-04-18T17:16:40.409Z,12.20
2023-04-18T17:19:08.354Z,12.20
2023-04-18T17:21:36.506Z,12.20
2023-04-18T17:24:05.900Z,12.10
2023-04-18T17:26:38.157Z,12.20
2023-04-18T17:29:05.163Z,12.10
2023-04-18T17:34:00.650Z,12.10
2023-04-18T17:36:27.851Z,12.10
2023-04-18T17:38:55.063Z,12.10
2023-04-18T17:41:22.066Z,12.00
2023-04-18T17:43:51.009Z,12.00
2023-04-18T17:46:18.289Z,12.00
2023-04-18T17:48:45.617Z,12.00
2023-04-18T17:51:12.539Z,12.00
2023-04-18T17:53:39.721Z,12.00
2023-04-18T17:56:06.675Z,12.00
2023-04-18T17:58:33.687Z,12.00
2023-04-18T18:01:00.762Z,12.00
2023-04-18T18:03:27.903Z,12.00
2023-04-18T18:05:55.231Z,12.00
2023-04-18T18:08:22.763Z,12.10
2023-04-18T18:10:49.925Z,12.00
2023-04-18T18:13:17.057Z,11.90
2023-04-18T18:15:43.912Z,11.90
2023-04-18T18:18:11.079Z,11.90
2023-04-18T18:20:38.047Z,12.00
2023-04-18T18:23:05.615Z,12.20
2023-04-18T18:25:33.149Z,11.90
2023-04-18T18:28:03.701Z,11.90
2023-04-18T18:30:31.026Z,11.90
2023-04-18T18:32:58.560Z,11.90
2023-04-18T18:35:25.567Z,11.90
2023-04-18T18:37:52.648Z,11.80
2023-04-18T18:40:20.138Z,11.90
2023-04-18T18:42:53.247Z,11.80
2023-04-18T18:45:21.292Z,11.80
2023-04-18T18:47:48.676Z,11.90
2023-04-18T18:50:15.652Z,11.80
2023-04-18T18:52:45.649Z,11.80
2023-04-18T18:55:12.655Z,11.90
2023-04-18T18:57:39.808Z,11.80
2023-04-18T19:00:11.216Z,11.90
2023-04-18T19:02:39.850Z,11.80
2023-04-18T19:05:08.546Z,11.80
2023-04-18T19:07:35.652Z,11.80
2023-04-18T19:10:03.592Z,11.80
2023-04-18T19:12:31.078Z,11.80
2023-04-18T19:14:57.944Z,11.80
2023-04-18T19:17:25.314Z,11.80
2023-04-18T19:19:53.272Z,11.80
2023-04-18T19:22:21.764Z,11.80
2023-04-18T19:27:16.462Z,11.80
2023-04-18T19:29:46.506Z,11.80
2023-04-18T19:32:14.644Z,11.80
2023-04-18T19:34:41.729Z,11.90
2023-04-18T19:37:08.609Z,11.80
2023-04-18T19:39:35.576Z,11.80
2023-04-18T19:42:02.788Z,11.90
2023-04-18T19:44:31.402Z,11.80
2023-04-18T19:46:58.394Z,11.90
2023-04-18T19:49:25.365Z,11.90
2023-04-18T19:51:52.835Z,11.90
2023-04-18T19:54:23.021Z,11.90
2023-04-18T19:56:50.376Z,11.90
2023-04-18T19:59:17.852Z,11.90
2023-04-18T20:01:45.103Z,11.80
2023-04-18T20:04:12.234Z,11.90
2023-04-18T20:06:39.507Z,11.90
2023-04-18T20:09:08.509Z,11.90
2023-04-18T20:11:35.391Z,11.90
2023-04-18T20:14:02.303Z,11.80
2023-04-18T20:16:29.319Z,11.80
2023-04-18T20:18:56.768Z,11.80
2023-04-18T20:21:24.712Z,11.90
2023-04-18T20:23:51.576Z,11.80
2023-04-18T20:26:18.414Z,11.80
2023-04-18T20:28:45.245Z,11.90
2023-04-18T20:31:12.921Z,11.80
2023-04-18T20:33:41.637Z,11.80
2023-04-18T20:36:08.649Z,11.80
2023-04-18T20:38:37.088Z,13.00
2023-04-18T20:41:04.269Z,11.80
2023-04-18T20:43:36.649Z,11.80
2023-04-18T20:46:03.546Z,11.80
2023-04-18T20:48:30.602Z,11.80
2023-04-18T20:50:57.543Z,11.80
2023-04-18T20:53:27.064Z,11.80
2023-04-18T20:55:54.526Z,11.80
2023-04-18T20:58:22.146Z,11.80
2023-04-18T21:00:49.036Z,11.80
2023-04-18T21:03:16.864Z,11.70
2023-04-18T21:05:45.196Z,11.80
2023-04-18T21:08:14.391Z,12.10
2023-04-18T21:10:41.299Z,11.80
2023-04-18T21:13:09.654Z,11.90
2023-04-18T21:15:36.873Z,11.80
2023-04-18T21:18:03.902Z,11.80
2023-04-18T21:20:30.919Z,11.80
2023-04-18T21:22:57.869Z,11.80
2023-04-18T21:25:24.912Z,11.80
2023-04-18T21:27:51.901Z,11.80
2023-04-18T21:30:18.770Z,11.80
2023-04-18T21:32:47.195Z,11.80
2023-04-18T21:35:14.117Z,11.80
2023-04-18T21:37:41.010Z,11.80
2023-04-18T21:40:08.512Z,11.80
2023-04-18T21:42:36.074Z,11.80
2023-04-18T21:45:03.218Z,11.70
2023-04-18T21:47:31.824Z,11.70
2023-04-18T21:49:58.684Z,11.80
2023-04-18T21:52:25.588Z,11.80
2023-04-18T21:54:52.475Z,11.80
2023-04-18T21:57:19.364Z,11.70
2023-04-18T21:59:46.186Z,11.70
2023-04-18T22:02:13.161Z,11.80
2023-04-18T22:04:42.549Z,11.80
2023-04-18T22:07:09.984Z,11.80
2023-04-18T22:09:37.150Z,11.80
2023-04-18T22:12:04.362Z,11.80
2023-04-18T22:14:34.502Z,11.80
2023-04-18T22:17:03.325Z,11.80
2023-04-18T22:19:31.293Z,11.70
2023-04-18T22:21:58.686Z,11.70
2023-04-18T22:24:26.080Z,11.80
2023-04-18T22:26:53.651Z,11.70
2023-04-18T22:29:20.526Z,11.70
2023-04-18T22:31:47.332Z,11.70
2023-04-18T22:34:14.448Z,11.90
2023-04-18T22:36:42.796Z,11.80
2023-04-18T22:39:09.761Z,11.70
2023-04-18T22:41:36.654Z,11.70
2023-04-18T22:44:04.671Z,11.70
2023-04-18T22:46:32.895Z,11.70
2023-04-18T22:48:59.878Z,11.70
2023-04-18T22:51:28.627Z,11.70
2023-04-18T22:53:56.241Z,11.90
2023-04-18T22:56:23.388Z,12.10
2023-04-18T22:58:50.297Z,11.80
2023-04-18T23:01:17.231Z,11.70
2023-04-18T23:03:44.441Z,11.80
2023-04-18T23:06:11.393Z,11.70
2023-04-18T23:08:38.307Z,11.70
2023-04-18T23:11:05.276Z,11.80
2023-04-18T23:13:32.156Z,11.70
2023-04-18T23:15:59.108Z,11.70
2023-04-18T23:18:29.053Z,11.70
2023-04-18T23:20:55.908Z,11.70
2023-04-18T23:23:22.766Z,11.70
2023-04-18T23:25:49.587Z,12.50
2023-04-18T23:28:17.213Z,12.90
2023-04-18T23:30:44.195Z,11.60
2023-04-18T23:33:11.233Z,11.60
2023-04-18T23:35:38.065Z,11.70
2023-04-18T23:38:05.001Z,12.80
2023-04-18T23:40:31.902Z,11.60
2023-04-18T23:42:59.096Z,11.60
2023-04-18T23:45:26.128Z,11.70
2023-04-18T23:47:53.178Z,11.60
2023-04-18T23:50:20.573Z,11.60
2023-04-18T23:52:47.530Z,11.60
2023-04-18T23:55:14.371Z,11.60
2023-04-18T23:57:41.267Z,11.60
